createdAt,value
2022-10-08T00:00:24.157Z,17.30
2022-10-08T00:02:56.680Z,17.40
2022-10-08T00:05:29.300Z,17.40
2022-10-08T00:08:02.479Z,17.40
2022-10-08T00:10:35.224Z,17.40
2022-10-08T00:13:07.784Z,17.40
2022-10-08T00:15:41.670Z,17.40
2022-10-08T00:18:14.471Z,17.40
2022-10-08T00:20:47.641Z,17.40
2022-10-08T00:23:20.191Z,17.40
2022-10-08T00:25:52.732Z,17.40
2022-10-08T00:28:25.320Z,17.40
2022-10-08T00:30:58.322Z,17.40
2022-10-08T00:33:30.954Z,17.40
2022-10-08T00:36:06.204Z,17.40
2022-10-08T00:38:39.305Z,17.40
2022-10-08T00:41:20.990Z,17.40
2022-10-08T00:43:56.770Z,17.40
2022-10-08T00:46:37.542Z,17.40
2022-10-08T00:49:12.035Z,17.40
2022-10-08T00:51:50.232Z,17.40
2022-10-08T00:54:24.128Z,17.40
2022-10-08T00:56:56.652Z,17.40
2022-10-08T00:59:29.794Z,17.40
2022-10-08T01:02:02.409Z,17.30
2022-10-08T01:04:36.594Z,17.30
2022-10-08T01:07:15.294Z,17.30
2022-10-08T01:10:04.414Z,17.30
2022-10-08T01:12:53.659Z,17.20
2022-10-08T01:15:40.556Z,17.20
2022-10-08T01:18:20.975Z,17.20
2022-10-08T01:21:10.326Z,17.20
2022-10-08T01:24:14.351Z,17.20
2022-10-08T01:27:09.650Z,17.10
2022-10-08T01:29:46.338Z,17.10
2022-10-08T01:32:24.451Z,17.10
2022-10-08T01:35:04.175Z,17.10
2022-10-08T01:37:43.499Z,17.00
2022-10-08T01:40:20.444Z,17.00
2022-10-08T01:42:54.260Z,17.00
2022-10-08T01:45:32.628Z,17.00
2022-10-08T01:48:12.712Z,17.00
2022-10-08T01:50:54.582Z,17.00
2022-10-08T01:53:33.806Z,16.90
2022-10-08T01:56:10.755Z,16.90
2022-10-08T01:58:54.701Z,16.90
2022-10-08T02:01:58.678Z,16.80
2022-10-08T02:04:33.718Z,16.80
2022-10-08T02:07:07.777Z,16.80
2022-10-08T02:09:44.796Z,16.80
2022-10-08T02:12:18.105Z,16.80
2022-10-08T02:14:54.366Z,16.80
2022-10-08T02:17:42.719Z,16.80
2022-10-08T02:20:33.551Z,16.80
2022-10-08T02:23:09.836Z,16.80
2022-10-08T02:25:58.057Z,16.80
2022-10-08T02:28:53.433Z,16.70
2022-10-08T02:31:27.732Z,16.60
2022-10-08T02:34:12.404Z,16.50
2022-10-08T02:36:52.019Z,16.40
2022-10-08T02:39:28.385Z,16.40
2022-10-08T02:42:05.430Z,16.40
2022-10-08T02:44:46.520Z,16.40
2022-10-08T02:47:22.493Z,16.40
2022-10-08T02:49:59.365Z,16.30
2022-10-08T02:52:39.071Z,16.30
2022-10-08T02:55:30.380Z,16.30
2022-10-08T02:58:08.090Z,16.20
2022-10-08T03:00:50.613Z,16.20
2022-10-08T03:03:30.520Z,16.20
2022-10-08T03:06:08.148Z,16.20
2022-10-08T03:08:46.622Z,16.20
2022-10-08T03:11:19.282Z,16.20
2022-10-08T03:13:58.729Z,16.20
2022-10-08T03:16:38.875Z,16.20
2022-10-08T03:19:15.964Z,16.20
2022-10-08T03:21:53.649Z,16.20
2022-10-08T03:24:26.218Z,16.20
2022-10-08T03:26:58.943Z,16.20
2022-10-08T03:29:31.479Z,16.20
2022-10-08T03:32:04.046Z,16.20
2022-10-08T03:34:36.614Z,16.20
2022-10-08T03:37:09.116Z,16.20
2022-10-08T03:39:43.535Z,16.20
2022-10-08T03:42:16.009Z,16.20
2022-10-08T03:44:48.659Z,16.10
2022-10-08T03:47:21.219Z,16.20
2022-10-08T03:49:54.022Z,16.20
2022-10-08T03:52:26.580Z,16.10
2022-10-08T03:54:59.992Z,16.20
2022-10-08T03:57:32.505Z,16.10
2022-10-08T04:00:05.727Z,16.10
2022-10-08T04:02:38.787Z,16.10
2022-10-08T04:05:11.432Z,16.00
2022-10-08T04:07:43.950Z,16.10
2022-10-08T04:10:16.749Z,16.10
2022-10-08T04:12:49.447Z,16.00
2022-10-08T04:15:22.289Z,16.00
2022-10-08T04:17:54.794Z,16.00
2022-10-08T04:20:27.347Z,16.00
2022-10-08T04:22:59.946Z,16.00
2022-10-08T04:25:32.513Z,16.00
2022-10-08T04:28:05.691Z,16.00
2022-10-08T04:30:38.216Z,16.00
2022-10-08T04:33:10.664Z,16.00
2022-10-08T04:35:43.180Z,16.00
2022-10-08T04:38:15.821Z,16.00
2022-10-08T04:40:48.853Z,16.00
2022-10-08T04:43:22.932Z,16.00
2022-10-08T04:45:56.767Z,16.00
2022-10-08T04:48:29.861Z,16.00
2022-10-08T04:51:09.418Z,16.00
2022-10-08T04:53:43.054Z,16.00
2022-10-08T04:56:19.908Z,16.00
2022-10-08T04:58:52.726Z,16.00
2022-10-08T05:01:26.211Z,16.00
2022-10-08T05:03:59.489Z,16.00
2022-10-08T05:06:32.470Z,16.00
2022-10-08T05:09:05.102Z,15.90
2022-10-08T05:11:37.715Z,15.90
2022-10-08T05:14:10.494Z,15.90
2022-10-08T05:16:43.113Z,15.80
2022-10-08T05:19:15.548Z,15.80
2022-10-08T05:21:48.140Z,15.80
2022-10-08T05:24:20.680Z,15.80
2022-10-08T05:26:58.588Z,15.80
2022-10-08T05:29:31.678Z,15.80
2022-10-08T05:32:04.281Z,15.80
2022-10-08T05:34:36.772Z,15.70
2022-10-08T05:37:09.330Z,15.70
2022-10-08T05:39:41.890Z,15.80
2022-10-08T05:42:14.413Z,15.70
2022-10-08T05:44:46.886Z,15.70
2022-10-08T05:47:19.414Z,15.60
2022-10-08T05:49:51.995Z,15.50
2022-10-08T05:52:27.436Z,15.50
2022-10-08T05:55:00.557Z,15.40
2022-10-08T05:57:33.412Z,15.50
2022-10-08T06:00:06.725Z,15.40
2022-10-08T06:02:44.650Z,15.40
2022-10-08T06:05:17.450Z,15.50
2022-10-08T06:07:50.087Z,15.50
2022-10-08T06:10:22.696Z,15.60
2022-10-08T06:12:55.258Z,15.50
2022-10-08T06:15:27.735Z,15.60
2022-10-08T06:18:02.222Z,15.60
2022-10-08T06:20:37.831Z,15.60
2022-10-08T06:23:10.393Z,15.70
2022-10-08T06:25:42.991Z,15.70
2022-10-08T06:28:16.575Z,15.80
2022-10-08T06:30:48.960Z,15.80
2022-10-08T06:33:21.465Z,15.90
2022-10-08T06:35:54.037Z,15.90
2022-10-08T06:38:26.529Z,15.90
2022-10-08T06:40:59.588Z,16.00
2022-10-08T06:43:32.243Z,16.00
2022-10-08T06:46:06.125Z,16.10
2022-10-08T06:48:39.820Z,16.10
2022-10-08T06:51:14.744Z,16.20
2022-10-08T06:53:54.422Z,16.20
2022-10-08T06:56:26.963Z,16.30
2022-10-08T06:58:59.406Z,16.30
2022-10-08T07:01:34.015Z,16.40
2022-10-08T07:04:07.295Z,16.40
2022-10-08T07:06:39.866Z,16.50
2022-10-08T07:09:13.781Z,16.50
2022-10-08T07:11:46.333Z,16.70
2022-10-08T07:14:18.937Z,16.70
2022-10-08T07:16:51.542Z,16.90
2022-10-08T07:19:24.698Z,17.00
2022-10-08T07:22:01.144Z,17.10
2022-10-08T07:24:34.422Z,17.10
2022-10-08T07:27:07.067Z,17.20
2022-10-08T07:29:39.943Z,17.30
2022-10-08T07:32:12.492Z,17.40
2022-10-08T07:34:44.965Z,17.40
2022-10-08T07:37:17.685Z,17.50
2022-10-08T07:39:50.202Z,17.60
2022-10-08T07:42:23.419Z,17.60
2022-10-08T07:44:55.986Z,17.70
2022-10-08T07:47:28.767Z,17.80
2022-10-08T07:50:01.352Z,17.80
2022-10-08T07:52:34.029Z,17.90
2022-10-08T07:55:06.917Z,18.00
2022-10-08T07:57:39.448Z,18.10
2022-10-08T08:00:12.840Z,18.10
2022-10-08T08:02:48.750Z,18.20
2022-10-08T08:05:21.706Z,18.20
2022-10-08T08:07:54.162Z,18.30
2022-10-08T08:10:26.781Z,18.40
2022-10-08T08:12:59.251Z,18.40
2022-10-08T08:15:31.787Z,18.50
2022-10-08T08:18:04.431Z,18.50
2022-10-08T08:20:37.337Z,18.60
2022-10-08T08:23:09.925Z,18.60
2022-10-08T08:25:45.410Z,18.70
2022-10-08T08:28:17.997Z,18.80
2022-10-08T08:30:50.630Z,18.80
2022-10-08T08:33:23.279Z,18.80
2022-10-08T08:35:55.990Z,18.80
2022-10-08T08:38:28.431Z,18.90
2022-10-08T08:41:28.595Z,19.00
2022-10-08T08:44:08.310Z,19.00
2022-10-08T08:46:46.965Z,19.00
2022-10-08T08:49:28.552Z,19.10
2022-10-08T08:52:03.898Z,19.20
2022-10-08T08:54:36.147Z,19.30
2022-10-08T08:57:27.825Z,19.30
2022-10-08T09:00:13.817Z,19.40
2022-10-08T09:03:04.503Z,19.40
2022-10-08T09:05:42.779Z,19.50
2022-10-08T09:08:40.744Z,19.60
2022-10-08T09:11:16.431Z,19.70
2022-10-08T09:13:58.962Z,19.70
2022-10-08T09:16:33.066Z,19.80
2022-10-08T09:19:05.879Z,19.90
2022-10-08T09:21:38.329Z,19.90
2022-10-08T09:24:12.588Z,20.00
2022-10-08T09:26:45.108Z,20.10
2022-10-08T09:29:32.992Z,20.10
2022-10-08T09:32:05.551Z,20.20
2022-10-08T09:34:38.106Z,20.20
2022-10-08T09:37:21.387Z,20.30
2022-10-08T09:40:12.535Z,20.30
2022-10-08T09:42:45.976Z,20.40
2022-10-08T09:45:39.058Z,20.40
2022-10-08T09:48:18.409Z,20.60
2022-10-08T09:51:00.463Z,20.70
2022-10-08T09:53:40.741Z,20.70
2022-10-08T09:56:15.379Z,20.70
2022-10-08T09:58:55.103Z,20.70
2022-10-08T10:01:28.071Z,20.80
2022-10-08T10:04:02.479Z,20.80
2022-10-08T10:06:38.750Z,20.80
2022-10-08T10:09:11.958Z,20.80
2022-10-08T10:11:49.717Z,20.90
2022-10-08T10:14:29.558Z,21.00
2022-10-08T10:17:09.608Z,21.10
2022-10-08T10:19:52.529Z,21.10
2022-10-08T10:22:48.207Z,21.10
2022-10-08T10:25:44.853Z,21.20
2022-10-08T10:28:19.107Z,21.20
2022-10-08T10:30:56.139Z,21.20
2022-10-08T10:33:33.092Z,21.20
2022-10-08T10:36:11.587Z,21.20
2022-10-08T10:39:14.711Z,21.30
2022-10-08T10:41:52.717Z,21.40
2022-10-08T10:44:49.500Z,21.50
2022-10-08T10:47:29.581Z,21.60
2022-10-08T10:50:12.793Z,21.70
2022-10-08T10:53:09.256Z,21.80
2022-10-08T10:55:50.255Z,21.70
2022-10-08T10:58:41.974Z,21.70
2022-10-08T11:01:38.861Z,21.80
2022-10-08T11:04:18.585Z,21.80
2022-10-08T11:07:07.084Z,21.80
2022-10-08T11:09:44.401Z,21.90
2022-10-08T11:12:40.395Z,21.90
2022-10-08T11:15:28.010Z,21.90
2022-10-08T11:18:28.721Z,22.00
2022-10-08T11:21:32.964Z,22.00
2022-10-08T11:24:14.413Z,22.10
2022-10-08T11:26:50.640Z,22.20
2022-10-08T11:29:41.135Z,22.20
2022-10-08T11:32:17.173Z,22.20
2022-10-08T11:35:00.110Z,22.20
2022-10-08T11:37:37.350Z,22.30
2022-10-08T11:40:32.668Z,22.30
2022-10-08T11:43:24.903Z,22.40
2022-10-08T11:46:29.118Z,22.40
2022-10-08T11:49:17.735Z,22.50
2022-10-08T11:51:53.054Z,22.60
2022-10-08T11:54:26.373Z,22.60
2022-10-08T11:58:05.741Z,22.70
2022-10-08T12:00:45.311Z,22.70
2022-10-08T12:03:27.629Z,22.80
2022-10-08T12:06:17.804Z,22.80
2022-10-08T12:08:59.135Z,22.80
2022-10-08T12:11:35.747Z,22.80
2022-10-08T12:14:12.927Z,22.90
2022-10-08T12:16:49.842Z,22.90
2022-10-08T12:19:38.845Z,23.00
2022-10-08T12:22:25.389Z,23.00
2022-10-08T12:24:59.113Z,23.10
2022-10-08T12:27:34.594Z,23.10
2022-10-08T12:30:11.148Z,23.10
2022-10-08T12:32:44.247Z,23.20
2022-10-08T12:35:38.188Z,23.20
2022-10-08T12:38:36.374Z,23.20
2022-10-08T12:41:37.495Z,23.20
2022-10-08T12:44:25.442Z,23.30
2022-10-08T12:47:13.603Z,23.30
2022-10-08T12:49:57.150Z,23.30
2022-10-08T12:52:35.635Z,23.40
2022-10-08T12:55:16.797Z,23.40
2022-10-08T12:57:52.681Z,23.40
2022-10-08T13:00:34.504Z,23.30
2022-10-08T13:03:15.225Z,23.30
2022-10-08T13:05:49.375Z,23.30
2022-10-08T13:08:38.905Z,23.40
2022-10-08T13:11:15.833Z,23.40
2022-10-08T13:13:50.793Z,23.40
2022-10-08T13:16:24.981Z,23.50
2022-10-08T13:18:59.058Z,23.50
2022-10-08T13:21:32.227Z,23.50
2022-10-08T13:24:26.502Z,23.50
2022-10-08T13:26:59.255Z,23.60
2022-10-08T13:29:35.205Z,23.60
2022-10-08T13:32:16.258Z,23.60
2022-10-08T13:34:52.335Z,23.60
2022-10-08T13:37:32.751Z,23.60
2022-10-08T13:40:18.623Z,23.70
2022-10-08T13:42:55.065Z,23.70
2022-10-08T13:45:31.932Z,23.60
2022-10-08T13:48:05.907Z,23.60
2022-10-08T13:50:44.188Z,23.60
2022-10-08T13:53:20.840Z,23.60
2022-10-08T13:55:53.427Z,23.60
2022-10-08T13:58:25.819Z,23.60
2022-10-08T14:00:58.411Z,23.60
2022-10-08T14:03:30.910Z,23.60
2022-10-08T14:06:03.537Z,23.60
2022-10-08T14:08:37.453Z,23.60
2022-10-08T14:11:11.154Z,23.60
2022-10-08T14:13:43.735Z,23.60
2022-10-08T14:16:16.597Z,23.60
2022-10-08T14:18:49.286Z,23.50
2022-10-08T14:21:22.272Z,23.40
2022-10-08T14:23:54.785Z,23.40
2022-10-08T14:26:27.959Z,23.40
2022-10-08T14:29:01.076Z,23.40
2022-10-08T14:31:34.047Z,23.40
2022-10-08T14:34:07.468Z,23.40
2022-10-08T14:36:42.338Z,23.40
2022-10-08T14:39:14.927Z,23.30
2022-10-08T14:41:47.685Z,23.30
2022-10-08T14:44:22.846Z,23.30
2022-10-08T14:46:55.395Z,23.30
2022-10-08T14:49:28.255Z,23.20
2022-10-08T14:52:01.601Z,23.20
2022-10-08T14:54:34.288Z,23.20
2022-10-08T14:57:07.259Z,23.20
2022-10-08T14:59:41.599Z,23.10
2022-10-08T15:02:15.981Z,23.10
2022-10-08T15:04:48.445Z,23.10
2022-10-08T15:07:21.968Z,23.00
2022-10-08T15:09:54.633Z,23.00
2022-10-08T15:12:27.227Z,22.90
2022-10-08T15:14:59.970Z,22.90
2022-10-08T15:17:33.120Z,22.90
2022-10-08T15:20:06.485Z,22.80
2022-10-08T15:22:39.198Z,22.80
2022-10-08T15:25:11.613Z,22.80
2022-10-08T15:27:44.461Z,22.70
2022-10-08T15:30:17.280Z,22.70
2022-10-08T15:32:50.276Z,22.70
2022-10-08T15:35:23.479Z,22.60
2022-10-08T15:37:56.364Z,22.60
2022-10-08T15:40:31.707Z,22.50
2022-10-08T15:43:04.489Z,22.50
2022-10-08T15:45:44.788Z,22.50
2022-10-08T15:48:17.333Z,22.50
2022-10-08T15:50:59.376Z,22.40
2022-10-08T15:53:35.149Z,22.40
2022-10-08T15:56:08.040Z,22.30
2022-10-08T15:58:56.277Z,22.30
2022-10-08T16:01:29.950Z,22.20
2022-10-08T16:04:02.879Z,22.10
2022-10-08T16:06:36.503Z,22.10
2022-10-08T16:09:10.578Z,22.00
2022-10-08T16:11:43.914Z,22.00
2022-10-08T16:14:21.032Z,21.90
2022-10-08T16:16:54.566Z,21.90
2022-10-08T16:19:28.077Z,21.90
2022-10-08T16:22:01.783Z,21.80
2022-10-08T16:24:34.603Z,21.80
2022-10-08T16:27:07.359Z,21.80
2022-10-08T16:29:40.165Z,21.70
2022-10-08T16:32:13.476Z,21.70
2022-10-08T16:34:53.566Z,21.60
2022-10-08T16:37:26.864Z,21.60
2022-10-08T16:40:04.257Z,21.50
2022-10-08T16:42:36.768Z,21.50
2022-10-08T16:45:10.078Z,21.50
2022-10-08T16:47:42.935Z,21.40
2022-10-08T16:50:15.718Z,21.40
2022-10-08T16:52:48.499Z,21.30
2022-10-08T16:55:21.155Z,21.20
2022-10-08T16:57:55.873Z,21.10
2022-10-08T17:00:28.414Z,21.10
2022-10-08T17:03:02.059Z,21.00
2022-10-08T17:05:34.602Z,20.90
2022-10-08T17:08:07.080Z,20.80
2022-10-08T17:10:39.850Z,20.60
2022-10-08T17:13:12.704Z,20.60
2022-10-08T17:15:45.439Z,20.50
2022-10-08T17:18:18.300Z,20.40
2022-10-08T17:20:50.981Z,20.40
2022-10-08T17:23:25.017Z,20.30
2022-10-08T17:25:59.198Z,20.30
2022-10-08T17:28:34.483Z,20.20
2022-10-08T17:31:10.391Z,20.20
2022-10-08T17:33:43.810Z,20.10
2022-10-08T17:36:19.883Z,20.10
2022-10-08T17:38:54.423Z,20.00
2022-10-08T17:41:31.440Z,20.00
2022-10-08T17:44:07.188Z,19.90
2022-10-08T17:46:44.023Z,19.90
2022-10-08T17:49:18.937Z,19.80
2022-10-08T17:51:51.549Z,19.80
2022-10-08T17:54:24.141Z,19.80
2022-10-08T17:56:59.548Z,19.70
2022-10-08T17:59:32.401Z,19.60
2022-10-08T18:02:05.200Z,19.60
2022-10-08T18:04:37.783Z,19.50
2022-10-08T18:07:12.610Z,19.50
2022-10-08T18:09:45.175Z,19.40
2022-10-08T18:12:17.928Z,19.40
2022-10-08T18:14:50.519Z,19.40
2022-10-08T18:17:23.429Z,19.30
2022-10-08T18:19:56.051Z,19.30
2022-10-08T18:22:28.610Z,19.20
2022-10-08T18:25:03.600Z,19.20
2022-10-08T18:27:36.310Z,19.20
2022-10-08T18:30:10.027Z,19.20
2022-10-08T18:32:43.008Z,19.10
2022-10-08T18:35:15.509Z,19.10
2022-10-08T18:37:49.066Z,19.10
2022-10-08T18:40:21.895Z,19.00
2022-10-08T18:42:54.714Z,19.00
2022-10-08T18:45:27.796Z,19.00
2022-10-08T18:48:00.897Z,19.00
2022-10-08T18:50:33.798Z,19.00
2022-10-08T18:53:06.507Z,18.90
2022-10-08T18:55:39.232Z,18.90
2022-10-08T18:58:12.399Z,18.90
2022-10-08T19:00:46.633Z,18.90
2022-10-08T19:03:19.480Z,18.80
2022-10-08T19:05:53.038Z,18.80
2022-10-08T19:08:27.057Z,18.70
2022-10-08T19:11:09.488Z,18.60
2022-10-08T19:13:42.688Z,18.50
2022-10-08T19:16:16.758Z,18.50
2022-10-08T19:18:56.304Z,18.50
2022-10-08T19:21:32.554Z,18.50
2022-10-08T19:24:11.113Z,18.50
2022-10-08T19:26:44.666Z,18.50
2022-10-08T19:29:20.910Z,18.50
2022-10-08T19:31:53.797Z,18.40
2022-10-08T19:34:27.822Z,18.40
2022-10-08T19:37:00.333Z,18.40
2022-10-08T19:39:34.424Z,18.40
2022-10-08T19:42:07.243Z,18.40
2022-10-08T19:44:39.852Z,18.30
2022-10-08T19:47:12.717Z,18.20
2022-10-08T19:49:45.471Z,18.20
2022-10-08T19:52:18.181Z,18.10
2022-10-08T19:54:51.039Z,18.10
2022-10-08T19:57:25.432Z,18.10
2022-10-08T19:59:58.451Z,18.10
2022-10-08T20:02:31.232Z,18.10
2022-10-08T20:05:04.589Z,18.10
2022-10-08T20:07:39.718Z,18.00
2022-10-08T20:10:16.394Z,18.00
2022-10-08T20:12:49.368Z,17.90
2022-10-08T20:15:23.146Z,17.90
2022-10-08T20:17:55.885Z,17.90
2022-10-08T20:20:33.198Z,17.80
2022-10-08T20:23:07.317Z,17.80
2022-10-08T20:25:40.035Z,17.80
2022-10-08T20:28:12.719Z,17.80
2022-10-08T20:30:45.952Z,17.80
2022-10-08T20:33:19.911Z,17.80
2022-10-08T20:35:52.704Z,17.80
2022-10-08T20:38:25.234Z,17.80
2022-10-08T20:40:58.005Z,17.80
2022-10-08T20:43:32.824Z,17.80
2022-10-08T20:46:09.537Z,17.80
2022-10-08T20:48:44.552Z,17.80
2022-10-08T20:51:20.173Z,17.80
2022-10-08T20:54:00.975Z,17.80
2022-10-08T20:56:39.443Z,17.70
2022-10-08T20:59:16.568Z,17.70
2022-10-08T21:01:50.490Z,17.70
2022-10-08T21:04:23.091Z,17.70
2022-10-08T21:06:55.561Z,17.70
2022-10-08T21:09:28.098Z,17.70
2022-10-08T21:12:00.739Z,17.70
2022-10-08T21:14:33.307Z,17.70
2022-10-08T21:17:05.857Z,17.60
2022-10-08T21:19:38.447Z,17.60
2022-10-08T21:22:11.014Z,17.50
2022-10-08T21:24:44.555Z,17.50
2022-10-08T21:27:17.279Z,17.50
2022-10-08T21:29:51.087Z,17.50
2022-10-08T21:32:23.749Z,17.50
2022-10-08T21:34:56.342Z,17.50
2022-10-08T21:37:28.971Z,17.40
2022-10-08T21:40:01.473Z,17.40
2022-10-08T21:42:34.141Z,17.40
2022-10-08T21:45:07.145Z,17.40
2022-10-08T21:47:39.981Z,17.40
2022-10-08T21:50:12.425Z,17.50
2022-10-08T21:52:45.040Z,17.40
2022-10-08T21:55:17.618Z,17.40
2022-10-08T21:57:50.796Z,17.40
2022-10-08T22:00:31.663Z,17.40
2022-10-08T22:03:04.437Z,17.40
2022-10-08T22:05:36.978Z,17.40
2022-10-08T22:08:09.592Z,17.50
2022-10-08T22:10:42.327Z,17.50
2022-10-08T22:13:15.468Z,17.50
2022-10-08T22:15:53.917Z,17.50
2022-10-08T22:18:30.305Z,17.50
2022-10-08T22:21:07.701Z,17.60
2022-10-08T22:23:40.374Z,17.60
2022-10-08T22:26:17.818Z,17.60
2022-10-08T22:28:50.722Z,17.70
2022-10-08T22:31:23.484Z,17.70
2022-10-08T22:33:56.104Z,17.70
2022-10-08T22:36:31.595Z,17.70
2022-10-08T22:39:04.321Z,17.70
2022-10-08T22:41:36.965Z,17.80
2022-10-08T22:44:09.598Z,17.70
2022-10-08T22:46:42.061Z,17.70
2022-10-08T22:49:14.896Z,17.70
2022-10-08T22:51:47.469Z,17.70
2022-10-08T22:54:20.249Z,17.70
2022-10-08T22:56:53.118Z,17.60
2022-10-08T22:59:25.833Z,17.60
2022-10-08T23:01:58.469Z,17.60
2022-10-08T23:04:31.084Z,17.70
2022-10-08T23:07:03.748Z,17.70
2022-10-08T23:09:36.259Z,17.70
2022-10-08T23:12:08.710Z,17.70
2022-10-08T23:14:41.232Z,17.70
2022-10-08T23:17:13.704Z,17.70
2022-10-08T23:19:46.200Z,17.80
2022-10-08T23:22:18.602Z,17.80
2022-10-08T23:24:51.325Z,17.80
2022-10-08T23:27:24.000Z,17.80
2022-10-08T23:29:57.303Z,17.80
2022-10-08T23:32:29.937Z,17.80
2022-10-08T23:35:02.458Z,17.80
2022-10-08T23:37:34.932Z,17.80
2022-10-08T23:40:07.985Z,17.80
2022-10-08T23:42:40.365Z,17.80
2022-10-08T23:45:12.847Z,17.80
2022-10-08T23:47:45.258Z,17.80
2022-10-08T23:50:17.858Z,17.80
2022-10-08T23:52:50.638Z,17.80
2022-10-08T23:55:23.675Z,17.80
2022-10-08T23:57:56.018Z,17.80
